sensor_id;sensor_type;location;lat;lon;timestamp;temperature;humidity
23120;DHT22;11729;50.836;4.330;2022-12-28T00:00:55;8.80;99.90
23120;DHT22;11729;50.836;4.330;2022-12-28T00:03:20;8.80;99.90
23120;DHT22;11729;50.836;4.330;2022-12-28T00:05:46;8.90;99.90
23120;DHT22;11729;50.836;4.330;2022-12-28T00:08:11;8.80;99.90
23120;DHT22;11729;50.836;4.330;2022-12-28T00:10:37;9.00;99.90
23120;DHT22;11729;50.836;4.330;2022-12-28T00:13:03;8.90;99.90
23120;DHT22;11729;50.836;4.330;2022-12-28T00:15:28;8.90;99.90
23120;DHT22;11729;50.836;4.330;2022-12-28T00:17:56;8.90;99.90
23120;DHT22;11729;50.836;4.330;2022-12-28T00:20:22;8.90;99.90
23120;DHT22;11729;50.836;4.330;2022-12-28T00:22:47;9.00;99.90
23120;DHT22;11729;50.836;4.330;2022-12-28T00:25:14;8.90;99.90
23120;DHT22;11729;50.836;4.330;2022-12-28T00:27:40;9.00;99.90
23120;DHT22;11729;50.836;4.330;2022-12-28T00:30:06;8.90;99.90
23120;DHT22;11729;50.836;4.330;2022-12-28T00:32:31;9.00;99.90
23120;DHT22;11729;50.836;4.330;2022-12-28T00:34:57;9.10;99.90
23120;DHT22;11729;50.836;4.330;2022-12-28T00:37:23;9.20;99.90
23120;DHT22;11729;50.836;4.330;2022-12-28T00:39:49;9.20;99.90
23120;DHT22;11729;50.836;4.330;2022-12-28T00:42:15;9.10;99.90
23120;DHT22;11729;50.836;4.330;2022-12-28T00:44:40;9.00;99.90
23120;DHT22;11729;50.836;4.330;2022-12-28T00:47:06;9.00;99.90
23120;DHT22;11729;50.836;4.330;2022-12-28T00:49:33;9.10;99.90
23120;DHT22;11729;50.836;4.330;2022-12-28T00:51:59;9.10;99.90
23120;DHT22;11729;50.836;4.330;2022-12-28T00:54:25;9.10;99.90
23120;DHT22;11729;50.836;4.330;2022-12-28T00:56:50;9.10;99.90
23120;DHT22;11729;50.836;4.330;2022-12-28T00:59:16;9.10;99.90
23120;DHT22;11729;50.836;4.330;2022-12-28T01:01:42;9.00;99.90
23120;DHT22;11729;50.836;4.330;2022-12-28T01:04:07;9.10;99.90
23120;DHT22;11729;50.836;4.330;2022-12-28T01:06:33;9.10;99.90
23120;DHT22;11729;50.836;4.330;2022-12-28T01:08:59;9.20;99.90
23120;DHT22;11729;50.836;4.330;2022-12-28T01:11:27;9.30;99.90
23120;DHT22;11729;50.836;4.330;2022-12-28T01:13:55;9.30;99.90
23120;DHT22;11729;50.836;4.330;2022-12-28T01:18:55;9.40;99.90
23120;DHT22;11729;50.836;4.330;2022-12-28T01:21:23;9.40;99.90
23120;DHT22;11729;50.836;4.330;2022-12-28T01:23:52;9.50;99.90
23120;DHT22;11729;50.836;4.330;2022-12-28T01:26:18;9.40;99.90
23120;DHT22;11729;50.836;4.330;2022-12-28T01:28:45;9.30;99.90
23120;DHT22;11729;50.836;4.330;2022-12-28T01:31:13;9.40;99.90
23120;DHT22;11729;50.836;4.330;2022-12-28T01:33:39;9.40;99.90
23120;DHT22;11729;50.836;4.330;2022-12-28T01:36:15;9.50;99.90
23120;DHT22;11729;50.836;4.330;2022-12-28T01:38:42;9.50;99.90
23120;DHT22;11729;50.836;4.330;2022-12-28T01:41:13;9.50;99.90
23120;DHT22;11729;50.836;4.330;2022-12-28T01:43:43;9.50;99.90
23120;DHT22;11729;50.836;4.330;2022-12-28T01:46:14;9.60;99.90
23120;DHT22;11729;50.836;4.330;2022-12-28T01:48:55;9.40;99.90
23120;DHT22;11729;50.836;4.330;2022-12-28T01:51:23;9.50;99.90
23120;DHT22;11729;50.836;4.330;2022-12-28T01:53:51;9.50;99.90
23120;DHT22;11729;50.836;4.330;2022-12-28T01:56:17;9.30;99.90
23120;DHT22;11729;50.836;4.330;2022-12-28T01:58:44;9.30;99.90
23120;DHT22;11729;50.836;4.330;2022-12-28T02:01:10;9.20;99.90
23120;DHT22;11729;50.836;4.330;2022-12-28T02:03:36;9.20;99.90
23120;DHT22;11729;50.836;4.330;2022-12-28T02:06:05;9.20;99.90
23120;DHT22;11729;50.836;4.330;2022-12-28T02:08:38;9.30;99.90
23120;DHT22;11729;50.836;4.330;2022-12-28T02:11:08;9.30;99.90
23120;DHT22;11729;50.836;4.330;2022-12-28T02:13:36;9.10;99.90
23120;DHT22;11729;50.836;4.330;2022-12-28T02:16:03;9.10;99.90
23120;DHT22;11729;50.836;4.330;2022-12-28T02:18:29;9.10;99.90
23120;DHT22;11729;50.836;4.330;2022-12-28T02:27:00;9.00;99.90
23120;DHT22;11729;50.836;4.330;2022-12-28T02:30:00;9.00;99.90
23120;DHT22;11729;50.836;4.330;2022-12-28T02:37:48;9.00;99.90
23120;DHT22;11729;50.836;4.330;2022-12-28T02:40:20;9.10;99.90
23120;DHT22;11729;50.836;4.330;2022-12-28T02:42:48;9.20;99.90
23120;DHT22;11729;50.836;4.330;2022-12-28T02:45:49;9.30;99.90
23120;DHT22;11729;50.836;4.330;2022-12-28T02:48:41;9.30;99.90
23120;DHT22;11729;50.836;4.330;2022-12-28T02:54:56;9.40;99.90
23120;DHT22;11729;50.836;4.330;2022-12-28T03:00:22;9.40;99.90
23120;DHT22;11729;50.836;4.330;2022-12-28T03:03:18;9.50;99.90
23120;DHT22;11729;50.836;4.330;2022-12-28T03:05:58;9.50;99.90
23120;DHT22;11729;50.836;4.330;2022-12-28T03:09:17;9.50;99.90
23120;DHT22;11729;50.836;4.330;2022-12-28T03:11:55;9.60;99.90
23120;DHT22;11729;50.836;4.330;2022-12-28T03:14:40;9.60;99.90
23120;DHT22;11729;50.836;4.330;2022-12-28T03:17:10;9.60;99.90
23120;DHT22;11729;50.836;4.330;2022-12-28T03:19:57;9.60;99.90
23120;DHT22;11729;50.836;4.330;2022-12-28T03:22:44;9.70;99.90
23120;DHT22;11729;50.836;4.330;2022-12-28T03:25:41;9.70;99.90
23120;DHT22;11729;50.836;4.330;2022-12-28T03:28:28;9.70;99.90
23120;DHT22;11729;50.836;4.330;2022-12-28T03:31:18;9.70;99.90
23120;DHT22;11729;50.836;4.330;2022-12-28T03:33:46;9.80;99.90
23120;DHT22;11729;50.836;4.330;2022-12-28T03:41:46;9.90;99.90
23120;DHT22;11729;50.836;4.330;2022-12-28T03:44:23;9.90;99.90
23120;DHT22;11729;50.836;4.330;2022-12-28T03:46:59;9.90;99.90
23120;DHT22;11729;50.836;4.330;2022-12-28T03:49:27;9.90;99.90
23120;DHT22;11729;50.836;4.330;2022-12-28T03:51:54;9.80;99.90
23120;DHT22;11729;50.836;4.330;2022-12-28T03:54:21;9.80;99.90
23120;DHT22;11729;50.836;4.330;2022-12-28T03:56:48;9.80;99.90
23120;DHT22;11729;50.836;4.330;2022-12-28T03:59:15;9.80;99.90
23120;DHT22;11729;50.836;4.330;2022-12-28T04:01:41;9.90;99.90
23120;DHT22;11729;50.836;4.330;2022-12-28T04:04:07;9.90;99.90
23120;DHT22;11729;50.836;4.330;2022-12-28T04:06:33;9.80;99.90
23120;DHT22;11729;50.836;4.330;2022-12-28T04:09:00;9.90;99.90
23120;DHT22;11729;50.836;4.330;2022-12-28T04:11:25;9.80;99.90
23120;DHT22;11729;50.836;4.330;2022-12-28T04:13:51;9.90;99.90
23120;DHT22;11729;50.836;4.330;2022-12-28T04:16:17;9.80;99.90
23120;DHT22;11729;50.836;4.330;2022-12-28T04:18:44;9.80;99.90
23120;DHT22;11729;50.836;4.330;2022-12-28T04:21:11;9.90;99.90
23120;DHT22;11729;50.836;4.330;2022-12-28T04:23:37;10.00;99.90
23120;DHT22;11729;50.836;4.330;2022-12-28T04:26:09;9.90;99.90
23120;DHT22;11729;50.836;4.330;2022-12-28T04:28:38;9.80;99.90
23120;DHT22;11729;50.836;4.330;2022-12-28T04:31:05;9.80;99.90
23120;DHT22;11729;50.836;4.330;2022-12-28T04:33:33;9.80;99.90
23120;DHT22;11729;50.836;4.330;2022-12-28T04:36:10;9.70;99.90
23120;DHT22;11729;50.836;4.330;2022-12-28T04:38:36;9.70;99.90
23120;DHT22;11729;50.836;4.330;2022-12-28T04:41:03;9.70;99.90
23120;DHT22;11729;50.836;4.330;2022-12-28T04:43:29;9.70;99.90
23120;DHT22;11729;50.836;4.330;2022-12-28T04:46:02;9.70;99.90
23120;DHT22;11729;50.836;4.330;2022-12-28T04:48:29;9.70;99.90
23120;DHT22;11729;50.836;4.330;2022-12-28T04:50:55;9.70;99.90
23120;DHT22;11729;50.836;4.330;2022-12-28T04:53:21;9.70;99.90
23120;DHT22;11729;50.836;4.330;2022-12-28T04:55:46;9.70;99.90
23120;DHT22;11729;50.836;4.330;2022-12-28T04:58:12;9.70;99.90
23120;DHT22;11729;50.836;4.330;2022-12-28T05:00:38;9.80;99.90
23120;DHT22;11729;50.836;4.330;2022-12-28T05:03:04;9.90;99.90
23120;DHT22;11729;50.836;4.330;2022-12-28T05:05:30;9.90;99.90
23120;DHT22;11729;50.836;4.330;2022-12-28T05:07:59;9.90;99.90
23120;DHT22;11729;50.836;4.330;2022-12-28T05:10:24;10.00;99.90
23120;DHT22;11729;50.836;4.330;2022-12-28T05:12:50;10.00;99.90
23120;DHT22;11729;50.836;4.330;2022-12-28T05:15:16;10.00;99.90
23120;DHT22;11729;50.836;4.330;2022-12-28T05:17:41;10.00;99.90
23120;DHT22;11729;50.836;4.330;2022-12-28T05:20:07;10.10;99.90
23120;DHT22;11729;50.836;4.330;2022-12-28T05:22:34;10.00;99.90
23120;DHT22;11729;50.836;4.330;2022-12-28T05:24:59;10.00;99.90
23120;DHT22;11729;50.836;4.330;2022-12-28T05:27:25;10.20;99.90
23120;DHT22;11729;50.836;4.330;2022-12-28T05:29:51;10.30;99.90
23120;DHT22;11729;50.836;4.330;2022-12-28T05:32:17;10.30;99.90
23120;DHT22;11729;50.836;4.330;2022-12-28T05:34:43;10.40;99.90
23120;DHT22;11729;50.836;4.330;2022-12-28T05:37:09;10.50;99.90
23120;DHT22;11729;50.836;4.330;2022-12-28T05:39:35;10.40;99.90
23120;DHT22;11729;50.836;4.330;2022-12-28T05:42:01;10.40;99.90
23120;DHT22;11729;50.836;4.330;2022-12-28T05:44:27;10.50;99.90
23120;DHT22;11729;50.836;4.330;2022-12-28T05:46:52;10.50;99.90
23120;DHT22;11729;50.836;4.330;2022-12-28T05:49:18;10.50;99.90
23120;DHT22;11729;50.836;4.330;2022-12-28T05:51:43;10.60;99.90
23120;DHT22;11729;50.836;4.330;2022-12-28T05:54:09;10.60;99.90
23120;DHT22;11729;50.836;4.330;2022-12-28T05:56:37;10.70;99.90
23120;DHT22;11729;50.836;4.330;2022-12-28T05:59:05;10.60;99.90
23120;DHT22;11729;50.836;4.330;2022-12-28T06:01:37;10.70;99.90
23120;DHT22;11729;50.836;4.330;2022-12-28T06:04:06;10.60;99.90
23120;DHT22;11729;50.836;4.330;2022-12-28T06:06:33;10.80;99.90
23120;DHT22;11729;50.836;4.330;2022-12-28T06:09:00;10.70;99.90
23120;DHT22;11729;50.836;4.330;2022-12-28T06:11:27;10.60;99.90
23120;DHT22;11729;50.836;4.330;2022-12-28T06:13:57;10.60;99.90
23120;DHT22;11729;50.836;4.330;2022-12-28T06:16:25;10.60;99.90
23120;DHT22;11729;50.836;4.330;2022-12-28T06:18:51;10.50;99.90
23120;DHT22;11729;50.836;4.330;2022-12-28T06:21:29;10.60;99.90
23120;DHT22;11729;50.836;4.330;2022-12-28T06:23:56;10.60;99.90
23120;DHT22;11729;50.836;4.330;2022-12-28T06:26:22;10.70;99.90
23120;DHT22;11729;50.836;4.330;2022-12-28T06:28:49;10.70;99.90
23120;DHT22;11729;50.836;4.330;2022-12-28T06:31:20;10.70;99.90
23120;DHT22;11729;50.836;4.330;2022-12-28T06:33:47;10.70;99.90
23120;DHT22;11729;50.836;4.330;2022-12-28T06:36:16;10.60;99.90
23120;DHT22;11729;50.836;4.330;2022-12-28T06:38:42;10.80;99.90
23120;DHT22;11729;50.836;4.330;2022-12-28T06:41:10;10.90;99.90
23120;DHT22;11729;50.836;4.330;2022-12-28T06:43:37;10.80;99.90
23120;DHT22;11729;50.836;4.330;2022-12-28T06:46:03;10.90;99.90
23120;DHT22;11729;50.836;4.330;2022-12-28T06:48:30;10.90;99.90
23120;DHT22;11729;50.836;4.330;2022-12-28T06:51:10;11.00;99.90
23120;DHT22;11729;50.836;4.330;2022-12-28T06:53:39;10.90;99.90
23120;DHT22;11729;50.836;4.330;2022-12-28T06:56:25;10.90;99.90
23120;DHT22;11729;50.836;4.330;2022-12-28T06:58:52;10.80;99.90
23120;DHT22;11729;50.836;4.330;2022-12-28T07:01:23;10.80;99.90
23120;DHT22;11729;50.836;4.330;2022-12-28T07:03:51;10.90;99.90
23120;DHT22;11729;50.836;4.330;2022-12-28T07:06:19;11.00;99.90
23120;DHT22;11729;50.836;4.330;2022-12-28T07:08:45;11.00;99.90
23120;DHT22;11729;50.836;4.330;2022-12-28T07:11:20;10.90;99.90
23120;DHT22;11729;50.836;4.330;2022-12-28T07:13:46;11.00;99.90
23120;DHT22;11729;50.836;4.330;2022-12-28T07:16:15;10.90;99.90
23120;DHT22;11729;50.836;4.330;2022-12-28T07:18:41;10.90;99.90
23120;DHT22;11729;50.836;4.330;2022-12-28T07:21:17;11.00;99.90
23120;DHT22;11729;50.836;4.330;2022-12-28T07:23:43;11.00;99.90
23120;DHT22;11729;50.836;4.330;2022-12-28T07:26:16;11.10;99.90
23120;DHT22;11729;50.836;4.330;2022-12-28T07:28:44;11.00;99.90
23120;DHT22;11729;50.836;4.330;2022-12-28T07:31:12;10.90;99.90
23120;DHT22;11729;50.836;4.330;2022-12-28T07:33:38;11.00;99.90
23120;DHT22;11729;50.836;4.330;2022-12-28T07:36:09;10.90;99.90
23120;DHT22;11729;50.836;4.330;2022-12-28T07:38:35;10.90;99.90
23120;DHT22;11729;50.836;4.330;2022-12-28T07:41:19;10.80;99.90
23120;DHT22;11729;50.836;4.330;2022-12-28T07:43:45;10.80;99.90
23120;DHT22;11729;50.836;4.330;2022-12-28T07:46:16;10.70;99.90
23120;DHT22;11729;50.836;4.330;2022-12-28T07:48:43;10.60;99.90
23120;DHT22;11729;50.836;4.330;2022-12-28T07:53:38;10.60;99.90
23120;DHT22;11729;50.836;4.330;2022-12-28T07:56:04;10.50;99.90
23120;DHT22;11729;50.836;4.330;2022-12-28T07:58:30;10.40;99.90
23120;DHT22;11729;50.836;4.330;2022-12-28T08:01:10;10.40;99.90
23120;DHT22;11729;50.836;4.330;2022-12-28T08:03:37;10.30;99.90
23120;DHT22;11729;50.836;4.330;2022-12-28T08:06:05;10.30;99.90
23120;DHT22;11729;50.836;4.330;2022-12-28T08:08:34;10.30;99.90
23120;DHT22;11729;50.836;4.330;2022-12-28T08:11:13;10.30;99.90
23120;DHT22;11729;50.836;4.330;2022-12-28T08:13:41;10.20;99.90
23120;DHT22;11729;50.836;4.330;2022-12-28T08:16:10;10.20;99.90
23120;DHT22;11729;50.836;4.330;2022-12-28T08:18:36;10.20;99.90
23120;DHT22;11729;50.836;4.330;2022-12-28T08:21:07;10.20;99.90
23120;DHT22;11729;50.836;4.330;2022-12-28T08:23:32;10.00;99.90
23120;DHT22;11729;50.836;4.330;2022-12-28T08:28:34;10.00;99.90
23120;DHT22;11729;50.836;4.330;2022-12-28T08:31:04;10.00;99.90
23120;DHT22;11729;50.836;4.330;2022-12-28T08:33:30;10.00;99.90
23120;DHT22;11729;50.836;4.330;2022-12-28T08:35:56;10.00;99.90
23120;DHT22;11729;50.836;4.330;2022-12-28T08:38:22;10.00;99.90
23120;DHT22;11729;50.836;4.330;2022-12-28T08:40:57;10.00;99.90
23120;DHT22;11729;50.836;4.330;2022-12-28T08:43:23;9.90;99.90
23120;DHT22;11729;50.836;4.330;2022-12-28T08:46:00;9.90;99.90
23120;DHT22;11729;50.836;4.330;2022-12-28T08:48:26;9.90;99.90
23120;DHT22;11729;50.836;4.330;2022-12-28T08:50:52;9.90;99.90
23120;DHT22;11729;50.836;4.330;2022-12-28T08:53:18;9.90;99.90
23120;DHT22;11729;50.836;4.330;2022-12-28T08:55:44;9.90;99.90
23120;DHT22;11729;50.836;4.330;2022-12-28T08:58:10;9.90;99.90
23120;DHT22;11729;50.836;4.330;2022-12-28T09:00:35;9.90;99.90
23120;DHT22;11729;50.836;4.330;2022-12-28T09:03:02;10.10;99.90
23120;DHT22;11729;50.836;4.330;2022-12-28T09:05:27;10.10;99.90
23120;DHT22;11729;50.836;4.330;2022-12-28T09:07:53;10.20;99.90
23120;DHT22;11729;50.836;4.330;2022-12-28T09:10:19;10.20;99.90
23120;DHT22;11729;50.836;4.330;2022-12-28T09:12:44;10.10;99.90
23120;DHT22;11729;50.836;4.330;2022-12-28T09:15:11;10.20;99.90
23120;DHT22;11729;50.836;4.330;2022-12-28T09:17:37;10.30;99.90
23120;DHT22;11729;50.836;4.330;2022-12-28T09:20:03;10.30;99.90
23120;DHT22;11729;50.836;4.330;2022-12-28T09:22:32;10.30;99.90
23120;DHT22;11729;50.836;4.330;2022-12-28T09:24:58;10.30;99.90
23120;DHT22;11729;50.836;4.330;2022-12-28T09:27:25;10.30;99.90
23120;DHT22;11729;50.836;4.330;2022-12-28T09:29:50;10.20;99.90
23120;DHT22;11729;50.836;4.330;2022-12-28T09:32:16;10.30;99.90
23120;DHT22;11729;50.836;4.330;2022-12-28T09:34:41;10.40;99.90
23120;DHT22;11729;50.836;4.330;2022-12-28T09:37:07;10.30;99.90
23120;DHT22;11729;50.836;4.330;2022-12-28T09:39:33;10.20;99.90
23120;DHT22;11729;50.836;4.330;2022-12-28T09:44:45;10.20;99.90
23120;DHT22;11729;50.836;4.330;2022-12-28T09:55:38;10.30;99.90
23120;DHT22;11729;50.836;4.330;2022-12-28T09:58:10;10.20;99.90
23120;DHT22;11729;50.836;4.330;2022-12-28T10:00:48;10.20;99.90
23120;DHT22;11729;50.836;4.330;2022-12-28T10:03:37;10.10;99.90
23120;DHT22;11729;50.836;4.330;2022-12-28T10:06:16;10.10;99.90
23120;DHT22;11729;50.836;4.330;2022-12-28T10:08:45;10.20;99.90
23120;DHT22;11729;50.836;4.330;2022-12-28T10:11:17;10.30;99.90
23120;DHT22;11729;50.836;4.330;2022-12-28T10:13:45;10.30;99.90
23120;DHT22;11729;50.836;4.330;2022-12-28T10:16:16;10.30;99.90
23120;DHT22;11729;50.836;4.330;2022-12-28T10:18:43;10.20;99.90
23120;DHT22;11729;50.836;4.330;2022-12-28T10:21:09;10.20;99.90
23120;DHT22;11729;50.836;4.330;2022-12-28T10:23:35;10.30;99.90
23120;DHT22;11729;50.836;4.330;2022-12-28T10:26:04;10.20;99.90
23120;DHT22;11729;50.836;4.330;2022-12-28T10:28:50;10.30;99.90
23120;DHT22;11729;50.836;4.330;2022-12-28T10:31:33;10.40;99.90
23120;DHT22;11729;50.836;4.330;2022-12-28T10:33:59;10.40;99.90
23120;DHT22;11729;50.836;4.330;2022-12-28T10:36:27;10.40;99.90
23120;DHT22;11729;50.836;4.330;2022-12-28T10:38:56;10.40;99.90
23120;DHT22;11729;50.836;4.330;2022-12-28T10:41:35;10.30;99.90
23120;DHT22;11729;50.836;4.330;2022-12-28T10:44:25;10.30;99.90
23120;DHT22;11729;50.836;4.330;2022-12-28T10:47:04;10.20;99.90
23120;DHT22;11729;50.836;4.330;2022-12-28T10:49:34;10.20;99.90
23120;DHT22;11729;50.836;4.330;2022-12-28T10:52:04;10.20;99.90
23120;DHT22;11729;50.836;4.330;2022-12-28T10:54:34;10.20;99.90
23120;DHT22;11729;50.836;4.330;2022-12-28T10:57:01;10.20;99.90
23120;DHT22;11729;50.836;4.330;2022-12-28T10:59:29;10.20;99.90
23120;DHT22;11729;50.836;4.330;2022-12-28T11:02:22;10.30;99.90
23120;DHT22;11729;50.836;4.330;2022-12-28T11:04:59;10.30;99.90
23120;DHT22;11729;50.836;4.330;2022-12-28T11:07:37;10.50;99.90
23120;DHT22;11729;50.836;4.330;2022-12-28T11:10:21;10.60;99.90
23120;DHT22;11729;50.836;4.330;2022-12-28T11:12:49;10.70;99.90
23120;DHT22;11729;50.836;4.330;2022-12-28T11:15:18;10.80;99.90
23120;DHT22;11729;50.836;4.330;2022-12-28T11:17:50;10.80;99.90
23120;DHT22;11729;50.836;4.330;2022-12-28T11:20:19;10.80;99.90
23120;DHT22;11729;50.836;4.330;2022-12-28T11:22:45;10.80;99.90
23120;DHT22;11729;50.836;4.330;2022-12-28T11:25:15;10.90;99.90
23120;DHT22;11729;50.836;4.330;2022-12-28T11:27:42;10.90;99.90
23120;DHT22;11729;50.836;4.330;2022-12-28T11:30:15;10.90;99.90
23120;DHT22;11729;50.836;4.330;2022-12-28T11:32:57;10.80;99.90
23120;DHT22;11729;50.836;4.330;2022-12-28T11:35:27;10.80;99.90
23120;DHT22;11729;50.836;4.330;2022-12-28T11:37:58;10.90;99.90
23120;DHT22;11729;50.836;4.330;2022-12-28T11:53:48;11.10;99.90
23120;DHT22;11729;50.836;4.330;2022-12-28T11:56:19;11.10;99.90
23120;DHT22;11729;50.836;4.330;2022-12-28T11:59:19;11.20;99.90
23120;DHT22;11729;50.836;4.330;2022-12-28T12:01:48;11.20;99.90
23120;DHT22;11729;50.836;4.330;2022-12-28T12:04:17;11.30;99.90
23120;DHT22;11729;50.836;4.330;2022-12-28T12:11:48;11.30;99.90
23120;DHT22;11729;50.836;4.330;2022-12-28T12:14:15;11.30;99.90
23120;DHT22;11729;50.836;4.330;2022-12-28T12:16:53;11.20;99.90
23120;DHT22;11729;50.836;4.330;2022-12-28T12:19:29;11.20;99.90
23120;DHT22;11729;50.836;4.330;2022-12-28T12:25:01;11.10;99.90
23120;DHT22;11729;50.836;4.330;2022-12-28T12:27:39;11.10;99.90
23120;DHT22;11729;50.836;4.330;2022-12-28T12:30:13;11.20;99.90
23120;DHT22;11729;50.836;4.330;2022-12-28T12:32:55;11.20;99.90
23120;DHT22;11729;50.836;4.330;2022-12-28T12:35:25;11.30;99.90
23120;DHT22;11729;50.836;4.330;2022-12-28T12:40:34;11.40;99.90
23120;DHT22;11729;50.836;4.330;2022-12-28T12:46:26;11.40;99.90
23120;DHT22;11729;50.836;4.330;2022-12-28T12:49:25;11.40;99.90
23120;DHT22;11729;50.836;4.330;2022-12-28T12:55:07;11.30;99.90
23120;DHT22;11729;50.836;4.330;2022-12-28T12:57:48;11.40;99.90
23120;DHT22;11729;50.836;4.330;2022-12-28T13:00:16;11.50;99.90
23120;DHT22;11729;50.836;4.330;2022-12-28T13:05:41;11.40;99.90
23120;DHT22;11729;50.836;4.330;2022-12-28T13:08:22;11.40;99.90
23120;DHT22;11729;50.836;4.330;2022-12-28T13:10:48;11.40;99.90
23120;DHT22;11729;50.836;4.330;2022-12-28T13:13:26;11.40;99.90
23120;DHT22;11729;50.836;4.330;2022-12-28T13:15:57;11.50;99.90
23120;DHT22;11729;50.836;4.330;2022-12-28T13:18:24;11.60;99.90
23120;DHT22;11729;50.836;4.330;2022-12-28T13:21:02;11.80;99.90
23120;DHT22;11729;50.836;4.330;2022-12-28T13:23:31;11.70;99.90
23120;DHT22;11729;50.836;4.330;2022-12-28T13:25:58;11.70;99.90
23120;DHT22;11729;50.836;4.330;2022-12-28T13:33:41;11.90;99.90
23120;DHT22;11729;50.836;4.330;2022-12-28T13:36:16;11.90;99.90
23120;DHT22;11729;50.836;4.330;2022-12-28T13:38:43;11.90;99.90
23120;DHT22;11729;50.836;4.330;2022-12-28T13:41:23;12.00;99.90
23120;DHT22;11729;50.836;4.330;2022-12-28T13:46:38;12.00;99.90
23120;DHT22;11729;50.836;4.330;2022-12-28T13:49:07;12.00;99.90
23120;DHT22;11729;50.836;4.330;2022-12-28T13:51:37;12.00;99.90
23120;DHT22;11729;50.836;4.330;2022-12-28T13:54:05;12.10;99.90
23120;DHT22;11729;50.836;4.330;2022-12-28T13:56:32;12.00;99.90
23120;DHT22;11729;50.836;4.330;2022-12-28T13:59:24;12.10;99.90
23120;DHT22;11729;50.836;4.330;2022-12-28T14:01:49;12.00;99.90
23120;DHT22;11729;50.836;4.330;2022-12-28T14:04:20;11.90;99.90
23120;DHT22;11729;50.836;4.330;2022-12-28T14:06:49;11.90;99.90
23120;DHT22;11729;50.836;4.330;2022-12-28T14:09:16;12.00;99.90
23120;DHT22;11729;50.836;4.330;2022-12-28T14:11:44;12.10;99.90
23120;DHT22;11729;50.836;4.330;2022-12-28T14:14:11;12.10;99.90
23120;DHT22;11729;50.836;4.330;2022-12-28T14:16:38;12.10;99.90
23120;DHT22;11729;50.836;4.330;2022-12-28T14:19:05;12.10;99.90
23120;DHT22;11729;50.836;4.330;2022-12-28T14:21:41;12.00;99.90
23120;DHT22;11729;50.836;4.330;2022-12-28T14:24:10;12.00;99.90
23120;DHT22;11729;50.836;4.330;2022-12-28T14:26:39;11.90;99.90
23120;DHT22;11729;50.836;4.330;2022-12-28T14:29:11;11.90;99.90
23120;DHT22;11729;50.836;4.330;2022-12-28T14:31:38;11.90;99.90
23120;DHT22;11729;50.836;4.330;2022-12-28T14:34:05;11.90;99.90
23120;DHT22;11729;50.836;4.330;2022-12-28T14:36:32;11.80;99.90
23120;DHT22;11729;50.836;4.330;2022-12-28T14:38:59;11.80;99.90
23120;DHT22;11729;50.836;4.330;2022-12-28T14:41:36;11.90;99.90
23120;DHT22;11729;50.836;4.330;2022-12-28T14:44:12;11.90;99.90
23120;DHT22;11729;50.836;4.330;2022-12-28T14:46:39;11.80;99.90
23120;DHT22;11729;50.836;4.330;2022-12-28T14:52:16;11.70;99.90
23120;DHT22;11729;50.836;4.330;2022-12-28T14:54:52;11.50;99.90
23120;DHT22;11729;50.836;4.330;2022-12-28T14:57:36;11.40;99.90
23120;DHT22;11729;50.836;4.330;2022-12-28T15:00:20;11.40;99.90
23120;DHT22;11729;50.836;4.330;2022-12-28T15:02:47;11.40;99.90
23120;DHT22;11729;50.836;4.330;2022-12-28T15:05:49;11.40;99.90
23120;DHT22;11729;50.836;4.330;2022-12-28T15:08:15;11.40;99.90
23120;DHT22;11729;50.836;4.330;2022-12-28T15:10:56;11.40;99.90
23120;DHT22;11729;50.836;4.330;2022-12-28T15:13:23;11.30;99.90
23120;DHT22;11729;50.836;4.330;2022-12-28T15:15:57;11.20;99.90
23120;DHT22;11729;50.836;4.330;2022-12-28T15:18:24;11.20;99.90
23120;DHT22;11729;50.836;4.330;2022-12-28T15:20:50;11.20;99.90
23120;DHT22;11729;50.836;4.330;2022-12-28T15:23:16;11.20;99.90
23120;DHT22;11729;50.836;4.330;2022-12-28T15:25:42;11.10;99.90
23120;DHT22;11729;50.836;4.330;2022-12-28T15:28:08;11.10;99.90
23120;DHT22;11729;50.836;4.330;2022-12-28T15:30:37;11.00;99.90
23120;DHT22;11729;50.836;4.330;2022-12-28T15:33:03;11.00;99.90
23120;DHT22;11729;50.836;4.330;2022-12-28T15:35:28;10.90;99.90
23120;DHT22;11729;50.836;4.330;2022-12-28T15:37:54;10.90;99.90
23120;DHT22;11729;50.836;4.330;2022-12-28T15:40:21;10.80;99.90
23120;DHT22;11729;50.836;4.330;2022-12-28T15:42:46;10.80;99.90
23120;DHT22;11729;50.836;4.330;2022-12-28T15:45:15;10.70;99.90
23120;DHT22;11729;50.836;4.330;2022-12-28T15:47:40;10.80;99.90
23120;DHT22;11729;50.836;4.330;2022-12-28T15:50:07;10.80;99.90
23120;DHT22;11729;50.836;4.330;2022-12-28T15:52:32;10.70;99.90
23120;DHT22;11729;50.836;4.330;2022-12-28T15:55:00;10.80;99.90
23120;DHT22;11729;50.836;4.330;2022-12-28T15:57:28;10.80;99.90
23120;DHT22;11729;50.836;4.330;2022-12-28T15:59:54;10.70;99.90
23120;DHT22;11729;50.836;4.330;2022-12-28T16:02:21;10.70;99.90
23120;DHT22;11729;50.836;4.330;2022-12-28T16:04:48;10.70;99.90
23120;DHT22;11729;50.836;4.330;2022-12-28T16:07:13;10.50;99.90
23120;DHT22;11729;50.836;4.330;2022-12-28T16:09:42;10.50;99.90
23120;DHT22;11729;50.836;4.330;2022-12-28T16:12:07;10.50;99.90
23120;DHT22;11729;50.836;4.330;2022-12-28T16:14:33;10.50;99.90
23120;DHT22;11729;50.836;4.330;2022-12-28T16:17:00;10.40;99.90
23120;DHT22;11729;50.836;4.330;2022-12-28T16:19:25;10.40;99.90
23120;DHT22;11729;50.836;4.330;2022-12-28T16:21:52;10.40;99.90
23120;DHT22;11729;50.836;4.330;2022-12-28T16:24:18;10.40;99.90
23120;DHT22;11729;50.836;4.330;2022-12-28T16:26:49;10.40;99.90
23120;DHT22;11729;50.836;4.330;2022-12-28T16:29:17;10.40;99.90
23120;DHT22;11729;50.836;4.330;2022-12-28T16:31:43;10.40;99.90
23120;DHT22;11729;50.836;4.330;2022-12-28T16:34:14;10.30;99.90
23120;DHT22;11729;50.836;4.330;2022-12-28T16:36:41;10.30;99.90
23120;DHT22;11729;50.836;4.330;2022-12-28T16:39:10;10.30;99.90
23120;DHT22;11729;50.836;4.330;2022-12-28T16:41:36;10.30;99.90
23120;DHT22;11729;50.836;4.330;2022-12-28T16:44:09;10.30;99.90
23120;DHT22;11729;50.836;4.330;2022-12-28T16:46:36;10.30;99.90
23120;DHT22;11729;50.836;4.330;2022-12-28T16:49:02;10.30;99.90
23120;DHT22;11729;50.836;4.330;2022-12-28T16:51:31;10.30;99.90
23120;DHT22;11729;50.836;4.330;2022-12-28T16:53:57;10.30;99.90
23120;DHT22;11729;50.836;4.330;2022-12-28T16:56:23;10.20;99.90
23120;DHT22;11729;50.836;4.330;2022-12-28T16:58:48;10.20;99.90
23120;DHT22;11729;50.836;4.330;2022-12-28T17:01:14;10.20;99.90
23120;DHT22;11729;50.836;4.330;2022-12-28T17:03:40;10.10;99.90
23120;DHT22;11729;50.836;4.330;2022-12-28T17:06:05;10.10;99.90
23120;DHT22;11729;50.836;4.330;2022-12-28T17:08:34;10.10;99.90
23120;DHT22;11729;50.836;4.330;2022-12-28T17:11:00;10.20;99.90
23120;DHT22;11729;50.836;4.330;2022-12-28T17:13:26;10.20;99.90
23120;DHT22;11729;50.836;4.330;2022-12-28T17:15:52;10.20;99.90
23120;DHT22;11729;50.836;4.330;2022-12-28T17:18:17;10.10;99.90